Airport ICAO


07:22 UTC

12°C

Clear skies


An affordable passengers' Moving Map for your aircraft. Made for the iPad and the iPhone
More information here

LFMD Mandelieu


Cannes FRANCE   VFR CAVOK


METAR LFMD 200700Z AUTO 35005KT 320V030 CAVOK 12/05 Q1016 NOSIG 0h22min

TAF LFMD 200200Z 2003/2103 36005KT CAVOK BECMG 2008/2010 16005KT BECMG 2020/2022 35005KT 5h22min





NOTAMS

OPEN